createdAt,value
2023-05-06T00:00:55.004Z,48.65
2023-05-06T00:03:23.432Z,47.40
2023-05-06T00:05:54.590Z,48.78
2023-05-06T00:08:22.883Z,49.17
2023-05-06T00:10:51.075Z,48.63
2023-05-06T00:13:20.942Z,47.33
2023-05-06T00:15:49.069Z,46.28
2023-05-06T00:18:17.397Z,47.03
2023-05-06T00:20:45.510Z,46.55
2023-05-06T00:23:13.629Z,46.08
2023-05-06T00:25:41.914Z,46.72
2023-05-06T00:28:10.105Z,47.90
2023-05-06T00:30:42.603Z,47.17
2023-05-06T00:33:10.856Z,45.78
2023-05-06T00:35:39.028Z,46.95
2023-05-06T00:38:11.355Z,46.83
2023-05-06T00:40:40.661Z,45.90
2023-05-06T00:43:09.118Z,47.15
2023-05-06T00:45:37.308Z,46.38
2023-05-06T00:48:08.608Z,47.40
2023-05-06T00:50:37.854Z,47.60
2023-05-06T00:53:09.405Z,47.25
2023-05-06T00:55:39.131Z,48.25
2023-05-06T00:58:07.765Z,47.47
2023-05-06T01:00:36.009Z,46.58
2023-05-06T01:03:04.429Z,48.80
2023-05-06T01:05:38.895Z,48.97
2023-05-06T01:08:14.291Z,54.30
2023-05-06T01:10:50.810Z,49.28
2023-05-06T01:13:26.266Z,52.50
2023-05-06T01:15:56.698Z,51.17
2023-05-06T01:18:28.369Z,52.22
2023-05-06T01:20:59.199Z,49.78
2023-05-06T01:23:28.685Z,53.70
2023-05-06T01:25:57.026Z,53.28
2023-05-06T01:28:25.338Z,51.65
2023-05-06T01:31:00.645Z,51.90
2023-05-06T01:33:38.103Z,52.72
2023-05-06T01:36:14.236Z,54.00
2023-05-06T01:38:53.936Z,52.90
2023-05-06T01:41:24.096Z,51.90
2023-05-06T01:43:54.667Z,51.35
2023-05-06T01:46:26.752Z,54.95
2023-05-06T01:48:56.734Z,56.05
2023-05-06T01:51:26.129Z,53.47
2023-05-06T01:53:56.562Z,50.25
2023-05-06T01:56:24.825Z,48.80
2023-05-06T01:58:52.936Z,50.05
2023-05-06T02:01:20.901Z,48.78
2023-05-06T02:03:49.058Z,54.03
2023-05-06T02:06:17.313Z,50.88
2023-05-06T02:08:45.404Z,50.10
2023-05-06T02:11:14.943Z,50.47
2023-05-06T02:13:43.437Z,51.72
2023-05-06T02:16:11.523Z,53.13
2023-05-06T02:18:39.765Z,51.67
2023-05-06T02:21:08.049Z,54.30
2023-05-06T02:23:36.281Z,49.90
2023-05-06T02:26:04.448Z,51.38
2023-05-06T02:28:33.988Z,50.03
2023-05-06T02:31:02.412Z,49.35
2023-05-06T02:33:30.388Z,49.35
2023-05-06T02:35:58.707Z,51.83
2023-05-06T02:38:27.333Z,49.15
2023-05-06T02:40:55.603Z,48.90
2023-05-06T02:43:23.829Z,51.60
2023-05-06T02:45:53.864Z,51.40
2023-05-06T02:48:21.849Z,49.47
2023-05-06T02:50:50.566Z,49.35
2023-05-06T02:53:18.662Z,48.78
2023-05-06T02:55:46.907Z,48.20
2023-05-06T02:58:14.913Z,50.55
2023-05-06T03:00:42.997Z,48.40
2023-05-06T03:03:12.524Z,49.72
2023-05-06T03:05:42.138Z,47.67
2023-05-06T03:08:10.267Z,48.17
2023-05-06T03:10:38.533Z,50.15
2023-05-06T03:13:07.008Z,50.47
2023-05-06T03:16:01.151Z,49.20
2023-05-06T03:18:30.847Z,48.80
2023-05-06T03:20:58.867Z,48.22
2023-05-06T03:23:26.984Z,48.08
2023-05-06T03:25:55.415Z,48.55
2023-05-06T03:28:23.537Z,47.35
2023-05-06T03:30:51.755Z,47.60
2023-05-06T03:33:19.885Z,48.15
2023-05-06T03:35:49.572Z,49.03
2023-05-06T03:38:17.668Z,47.15
2023-05-06T03:40:46.208Z,48.72
2023-05-06T03:43:14.312Z,48.22
2023-05-06T03:45:42.822Z,48.60
2023-05-06T03:48:11.080Z,47.08
2023-05-06T03:50:39.812Z,47.33
2023-05-06T03:53:09.519Z,46.63
2023-05-06T03:55:37.633Z,47.05
2023-05-06T03:58:06.040Z,46.30
2023-05-06T04:00:34.311Z,46.90
2023-05-06T04:03:02.597Z,47.08
2023-05-06T04:05:30.706Z,46.47
2023-05-06T04:07:58.821Z,46.42
2023-05-06T04:10:28.416Z,47.00
2023-05-06T04:12:56.742Z,46.00
2023-05-06T04:15:25.210Z,45.25
2023-05-06T04:17:53.463Z,45.20
2023-05-06T04:20:21.487Z,45.13
2023-05-06T04:22:49.541Z,46.47
2023-05-06T04:25:18.472Z,46.97
2023-05-06T04:27:48.146Z,46.17
2023-05-06T04:30:16.419Z,45.72
2023-05-06T04:32:44.759Z,46.25
2023-05-06T04:35:12.891Z,45.75
2023-05-06T04:37:41.464Z,45.17
2023-05-06T04:40:13.841Z,45.50
2023-05-06T04:42:42.055Z,46.90
2023-05-06T04:45:12.707Z,44.97
2023-05-06T04:47:41.249Z,45.95
2023-05-06T04:50:10.677Z,45.65
2023-05-06T04:52:39.055Z,46.38
2023-05-06T04:55:07.979Z,45.47
2023-05-06T04:57:36.087Z,45.30
2023-05-06T05:00:04.522Z,44.33
2023-05-06T05:02:34.182Z,46.90
2023-05-06T05:05:02.342Z,45.72
2023-05-06T05:07:30.654Z,44.88
2023-05-06T05:09:58.788Z,44.70
2023-05-06T05:12:26.932Z,44.28
2023-05-06T05:14:54.949Z,44.05
2023-05-06T05:17:22.833Z,44.78
2023-05-06T05:19:52.983Z,47.63
2023-05-06T05:22:21.128Z,48.78
2023-05-06T05:24:49.244Z,45.05
2023-05-06T05:27:17.372Z,44.85
2023-05-06T05:29:45.459Z,44.45
2023-05-06T05:32:13.706Z,45.28
2023-05-06T05:34:41.755Z,44.65
2023-05-06T05:37:11.454Z,46.15
2023-05-06T05:39:39.562Z,46.78
2023-05-06T05:42:07.786Z,46.80
2023-05-06T05:44:36.363Z,46.00
2023-05-06T05:47:04.470Z,46.80
2023-05-06T05:49:32.536Z,46.30
2023-05-06T05:52:00.566Z,45.50
2023-05-06T05:54:30.389Z,46.05
2023-05-06T05:56:59.279Z,45.53
2023-05-06T05:59:27.590Z,46.47
2023-05-06T06:01:57.701Z,48.33
2023-05-06T06:04:25.858Z,47.97
2023-05-06T06:06:54.255Z,48.10
2023-05-06T06:09:22.975Z,46.95
2023-05-06T06:12:00.497Z,47.28
2023-05-06T06:14:28.984Z,47.83
2023-05-06T06:16:57.116Z,48.17
2023-05-06T06:19:25.413Z,49.88
2023-05-06T06:21:53.707Z,47.95
2023-05-06T06:24:23.401Z,49.83
2023-05-06T06:26:51.609Z,49.85
2023-05-06T06:29:21.258Z,49.60
2023-05-06T06:31:49.352Z,49.70
2023-05-06T06:34:17.887Z,49.15
2023-05-06T06:36:46.302Z,50.17
2023-05-06T06:39:14.611Z,50.28
2023-05-06T06:41:42.926Z,50.72
2023-05-06T06:44:10.962Z,50.70
2023-05-06T06:46:40.661Z,49.13
2023-05-06T06:49:08.793Z,50.63
2023-05-06T06:51:36.961Z,51.55
2023-05-06T06:54:05.314Z,52.13
2023-05-06T06:56:33.434Z,53.08
2023-05-06T06:59:01.382Z,54.08
2023-05-06T07:01:30.155Z,53.60
2023-05-06T07:03:59.886Z,54.88
2023-05-06T07:06:28.388Z,54.80
2023-05-06T07:09:01.983Z,55.72
2023-05-06T07:11:30.612Z,54.67
2023-05-06T07:13:58.963Z,55.35
2023-05-06T07:16:27.149Z,56.25
2023-05-06T07:18:55.667Z,52.30
2023-05-06T07:21:25.440Z,53.40
2023-05-06T07:23:56.336Z,49.17
2023-05-06T07:26:24.749Z,48.88
2023-05-06T07:28:56.641Z,47.65
2023-05-06T07:31:26.730Z,41.97
2023-05-06T07:33:59.047Z,42.75
2023-05-06T07:36:29.424Z,41.45
2023-05-06T07:39:00.471Z,40.20
2023-05-06T07:41:29.119Z,40.95
2023-05-06T07:43:57.761Z,40.33
2023-05-06T07:46:26.859Z,41.20
2023-05-06T07:48:58.215Z,41.33
2023-05-06T07:51:27.249Z,43.58
2023-05-06T07:53:57.466Z,45.88
2023-05-06T07:56:28.898Z,45.22
2023-05-06T07:59:01.570Z,46.00
2023-05-06T08:01:34.494Z,45.38
2023-05-06T08:04:12.051Z,43.80
2023-05-06T08:06:42.090Z,40.28
2023-05-06T08:09:17.021Z,40.78
2023-05-06T08:14:50.470Z,48.10
2023-05-06T08:17:18.810Z,49.08
2023-05-06T08:19:49.570Z,51.88
2023-05-06T08:22:17.947Z,52.63
2023-05-06T08:24:47.813Z,54.50
2023-05-06T08:27:16.093Z,53.20
2023-05-06T08:29:44.500Z,54.55
2023-05-06T08:32:12.840Z,52.22
2023-05-06T08:34:43.763Z,51.90
2023-05-06T08:37:12.053Z,52.28
2023-05-06T08:39:41.545Z,53.20
2023-05-06T08:42:17.604Z,52.20
2023-05-06T08:44:46.041Z,52.08
2023-05-06T08:47:14.433Z,50.58
2023-05-06T08:49:44.824Z,51.28
2023-05-06T08:52:13.438Z,53.05
2023-05-06T08:54:42.756Z,52.17
2023-05-06T08:57:16.634Z,53.67
2023-05-06T08:59:45.232Z,54.75
2023-05-06T09:02:14.011Z,57.60
2023-05-06T09:04:43.103Z,53.38
2023-05-06T09:07:11.407Z,55.08
2023-05-06T09:09:39.822Z,56.88
2023-05-06T09:12:13.824Z,57.55
2023-05-06T09:14:43.142Z,60.65
2023-05-06T09:17:24.108Z,61.33
2023-05-06T09:19:53.584Z,63.47
2023-05-06T09:22:23.416Z,64.93
2023-05-06T09:24:57.072Z,65.43
2023-05-06T09:27:28.327Z,63.13
2023-05-06T09:30:06.926Z,64.03
2023-05-06T09:32:38.186Z,62.80
2023-05-06T09:35:09.975Z,56.10
2023-05-06T09:37:38.574Z,52.53
2023-05-06T09:40:09.280Z,49.17
2023-05-06T09:42:39.539Z,38.28
2023-05-06T09:45:12.241Z,11.77
2023-05-06T09:47:40.950Z,14.93
2023-05-06T09:50:19.179Z,14.65
2023-05-06T09:52:49.102Z,12.45
2023-05-06T09:55:21.801Z,13.65
2023-05-06T09:57:54.631Z,11.60
2023-05-06T10:00:29.270Z,10.35
2023-05-06T10:02:58.300Z,10.32
2023-05-06T10:05:27.107Z,9.95
2023-05-06T10:07:58.357Z,11.10
2023-05-06T10:10:29.674Z,13.85
2023-05-06T10:13:03.569Z,11.35
2023-05-06T10:15:33.123Z,10.13
2023-05-06T10:18:02.513Z,12.35
2023-05-06T10:20:32.821Z,11.52
2023-05-06T10:23:08.019Z,9.00
2023-05-06T10:25:39.125Z,9.73
2023-05-06T10:28:12.756Z,11.80
2023-05-06T10:30:47.041Z,10.93
2023-05-06T10:33:18.169Z,10.77
2023-05-06T10:35:53.701Z,10.25
2023-05-06T10:38:26.063Z,11.00
2023-05-06T10:40:57.827Z,11.40
2023-05-06T10:43:29.337Z,10.05
2023-05-06T10:46:02.566Z,13.80
2023-05-06T10:48:31.229Z,11.77
2023-05-06T10:51:27.454Z,10.35
2023-05-06T10:54:03.879Z,9.60
2023-05-06T10:56:34.301Z,8.77
2023-05-06T10:59:10.748Z,8.73
2023-05-06T11:01:39.947Z,8.05
2023-05-06T11:04:12.628Z,5.07
2023-05-06T11:06:44.787Z,9.68
2023-05-06T11:09:20.719Z,9.75
2023-05-06T11:12:02.078Z,7.80
2023-05-06T11:14:33.252Z,9.35
2023-05-06T11:17:02.754Z,9.63
2023-05-06T11:19:32.317Z,9.35
2023-05-06T11:22:02.269Z,10.02
2023-05-06T11:24:31.781Z,8.00
2023-05-06T11:27:01.515Z,7.22
2023-05-06T11:29:31.284Z,9.48
2023-05-06T11:32:00.358Z,7.03
2023-05-06T11:34:29.908Z,7.88
2023-05-06T11:37:02.351Z,4.95
2023-05-06T11:39:36.635Z,7.30
2023-05-06T11:42:09.177Z,8.93
2023-05-06T11:44:40.626Z,12.68
2023-05-06T11:47:10.054Z,8.13
2023-05-06T11:49:42.189Z,9.48
2023-05-06T11:52:10.910Z,7.28
2023-05-06T11:54:41.682Z,8.88
2023-05-06T11:57:10.582Z,9.85
2023-05-06T11:59:43.376Z,8.85
2023-05-06T12:02:14.320Z,9.23
2023-05-06T12:04:45.935Z,6.60
2023-05-06T12:07:15.323Z,10.88
2023-05-06T12:09:47.154Z,8.05
2023-05-06T12:12:22.521Z,22.55
2023-05-06T12:14:54.383Z,7.85
2023-05-06T12:17:23.238Z,13.05
2023-05-06T12:19:51.943Z,8.73
2023-05-06T12:22:21.725Z,9.60
2023-05-06T12:24:52.923Z,9.15
2023-05-06T12:27:34.432Z,9.70
2023-05-06T12:30:11.792Z,7.65
2023-05-06T12:33:01.571Z,7.93
2023-05-06T12:35:33.353Z,7.25
2023-05-06T12:38:11.121Z,5.45
2023-05-06T12:40:44.270Z,5.50
2023-05-06T12:43:13.860Z,6.15
2023-05-06T12:45:46.383Z,6.32
2023-05-06T12:48:19.678Z,8.50
2023-05-06T12:50:48.341Z,10.43
2023-05-06T12:53:32.733Z,8.30
2023-05-06T12:56:00.883Z,9.20
2023-05-06T12:58:29.386Z,10.02
2023-05-06T13:00:58.949Z,11.05
2023-05-06T13:03:27.464Z,11.23
2023-05-06T13:05:55.756Z,10.57
2023-05-06T13:08:23.937Z,10.25
2023-05-06T13:10:52.018Z,10.15
2023-05-06T13:13:20.609Z,14.15
2023-05-06T13:15:49.324Z,10.02
2023-05-06T13:18:19.245Z,10.60
2023-05-06T13:20:48.984Z,12.80
2023-05-06T13:23:17.959Z,11.68
2023-05-06T13:26:02.712Z,9.95
2023-05-06T13:28:32.913Z,8.18
2023-05-06T13:31:01.148Z,10.30
2023-05-06T13:33:31.154Z,6.53
2023-05-06T13:35:59.314Z,8.38
2023-05-06T13:38:27.658Z,11.00
2023-05-06T13:40:55.824Z,10.13
2023-05-06T13:43:25.372Z,8.65
2023-05-06T13:45:54.321Z,8.77
2023-05-06T13:48:22.663Z,11.80
2023-05-06T13:50:52.480Z,9.02
2023-05-06T13:53:21.569Z,10.38
2023-05-06T13:55:49.660Z,10.38
2023-05-06T13:58:18.302Z,10.68
2023-05-06T14:00:46.604Z,9.57
2023-05-06T14:03:15.248Z,9.13
2023-05-06T14:05:46.345Z,9.63
2023-05-06T14:08:16.083Z,8.75
2023-05-06T14:10:46.779Z,10.60
2023-05-06T14:13:14.961Z,10.00
2023-05-06T14:15:45.976Z,9.68
2023-05-06T14:18:14.412Z,9.05
2023-05-06T14:20:42.930Z,9.80
2023-05-06T14:23:11.122Z,9.43
2023-05-06T14:25:40.591Z,10.50
2023-05-06T14:28:10.478Z,8.38
2023-05-06T14:30:38.891Z,7.97
2023-05-06T14:33:08.819Z,9.13
2023-05-06T14:35:37.826Z,9.05
2023-05-06T14:38:06.098Z,10.38
2023-05-06T14:40:38.967Z,7.38
2023-05-06T14:43:09.173Z,8.75
2023-05-06T14:45:37.373Z,10.13
2023-05-06T14:48:06.687Z,6.55
2023-05-06T14:50:35.499Z,9.00
2023-05-06T14:53:04.044Z,5.85
2023-05-06T14:55:32.531Z,11.82
2023-05-06T14:58:00.672Z,13.02
2023-05-06T15:00:30.302Z,12.52
2023-05-06T15:02:59.461Z,12.45
2023-05-06T15:05:27.934Z,13.40
2023-05-06T15:07:57.189Z,15.52
2023-05-06T15:10:25.657Z,13.48
2023-05-06T15:12:55.685Z,14.75
2023-05-06T15:15:23.758Z,13.88
2023-05-06T15:17:53.374Z,13.57
2023-05-06T15:20:21.594Z,12.80
2023-05-06T15:22:53.081Z,13.52
2023-05-06T15:25:34.080Z,11.32
2023-05-06T15:28:03.530Z,11.50
2023-05-06T15:30:31.882Z,12.13
2023-05-06T15:33:02.780Z,11.30
2023-05-06T15:35:32.093Z,11.18
2023-05-06T15:38:00.185Z,8.13
2023-05-06T15:40:28.621Z,7.18
2023-05-06T15:42:57.235Z,7.20
2023-05-06T15:45:27.716Z,5.97
2023-05-06T15:47:56.674Z,11.38
2023-05-06T15:52:59.840Z,5.28
2023-05-06T15:55:34.539Z,8.60
2023-05-06T15:58:09.676Z,6.25
2023-05-06T16:00:37.926Z,6.07
2023-05-06T16:03:07.965Z,9.02
2023-05-06T16:05:39.645Z,4.70
2023-05-06T16:08:08.090Z,7.70
2023-05-06T16:10:36.566Z,6.15
2023-05-06T16:13:04.884Z,6.25
2023-05-06T16:15:33.023Z,8.35
2023-05-06T16:18:01.655Z,8.32
2023-05-06T16:20:32.037Z,7.60
2023-05-06T16:23:02.812Z,7.47
2023-05-06T16:25:33.578Z,10.73
2023-05-06T16:28:01.684Z,8.80
2023-05-06T16:30:30.006Z,9.77
2023-05-06T16:33:01.477Z,10.75
2023-05-06T16:35:31.211Z,10.18
2023-05-06T16:37:59.511Z,13.20
2023-05-06T16:40:31.025Z,14.50
2023-05-06T16:42:59.137Z,24.85
2023-05-06T16:45:27.469Z,36.05
2023-05-06T16:48:00.564Z,41.05
2023-05-06T16:50:28.774Z,52.60
2023-05-06T16:52:59.476Z,59.30
2023-05-06T16:55:29.131Z,61.97
2023-05-06T16:57:57.282Z,61.60
2023-05-06T17:00:26.528Z,61.58
2023-05-06T17:02:54.829Z,61.90
2023-05-06T17:05:24.397Z,62.72
2023-05-06T17:07:52.610Z,61.55
2023-05-06T17:10:22.180Z,57.80
2023-05-06T17:12:52.100Z,57.50
2023-05-06T17:15:20.750Z,57.95
2023-05-06T17:17:49.433Z,55.83
2023-05-06T17:20:19.858Z,56.08
2023-05-06T17:22:48.269Z,53.85
2023-05-06T17:25:16.894Z,54.20
2023-05-06T17:27:47.835Z,52.95
2023-05-06T17:30:22.863Z,51.15
2023-05-06T17:32:54.261Z,51.30
2023-05-06T17:35:26.294Z,52.15
2023-05-06T17:38:00.408Z,52.00
2023-05-06T17:40:31.537Z,50.90
2023-05-06T17:42:59.891Z,50.80
2023-05-06T17:45:29.600Z,50.13
2023-05-06T17:48:00.843Z,49.60
2023-05-06T17:50:29.040Z,49.85
2023-05-06T17:52:57.422Z,48.45
2023-05-06T17:55:26.060Z,49.38
2023-05-06T17:57:56.515Z,48.22
2023-05-06T18:00:29.010Z,50.10
2023-05-06T18:02:58.227Z,50.53
2023-05-06T18:05:31.674Z,50.95
2023-05-06T18:08:02.676Z,50.38
2023-05-06T18:10:31.248Z,51.47
2023-05-06T18:12:59.935Z,52.28
2023-05-06T18:15:33.665Z,51.53
2023-05-06T18:18:04.537Z,51.17
2023-05-06T18:20:33.762Z,50.88
2023-05-06T18:23:05.300Z,51.15
2023-05-06T18:25:33.780Z,50.42
2023-05-06T18:28:05.705Z,50.05
2023-05-06T18:30:36.013Z,49.85
2023-05-06T18:33:28.980Z,49.42
2023-05-06T18:36:00.117Z,49.83
2023-05-06T18:38:30.890Z,49.72
2023-05-06T18:40:59.454Z,47.40
2023-05-06T18:43:28.669Z,46.58
2023-05-06T18:46:02.630Z,46.53
2023-05-06T18:48:35.351Z,46.83
2023-05-06T18:51:15.208Z,47.42
2023-05-06T18:53:47.135Z,48.72
2023-05-06T18:56:16.130Z,48.40
2023-05-06T18:58:44.609Z,48.25
2023-05-06T19:01:16.868Z,47.60
2023-05-06T19:03:45.320Z,45.88
2023-05-06T19:06:14.117Z,47.47
2023-05-06T19:08:42.685Z,47.60
2023-05-06T19:11:19.725Z,46.38
2023-05-06T19:13:48.247Z,52.33
2023-05-06T19:16:18.042Z,52.10
2023-05-06T19:18:48.087Z,50.15
2023-05-06T19:21:16.559Z,49.60
2023-05-06T19:23:44.832Z,47.90
2023-05-06T19:26:13.209Z,47.38
2023-05-06T19:28:43.180Z,46.78
2023-05-06T19:31:14.452Z,47.50
2023-05-06T19:33:47.621Z,47.72
2023-05-06T19:36:16.518Z,48.08
2023-05-06T19:38:45.164Z,46.45
2023-05-06T19:41:13.386Z,48.75
2023-05-06T19:43:43.176Z,44.40
2023-05-06T19:46:12.847Z,46.20
2023-05-06T19:48:40.958Z,46.08
2023-05-06T19:51:10.527Z,46.22
2023-05-06T19:53:38.800Z,48.83
2023-05-06T19:56:10.614Z,45.10
2023-05-06T19:58:38.960Z,48.67
2023-05-06T20:01:07.495Z,53.47
2023-05-06T20:03:36.783Z,52.65
2023-05-06T20:06:05.615Z,58.22
2023-05-06T20:08:38.300Z,55.85
2023-05-06T20:11:08.443Z,61.35
2023-05-06T20:13:36.814Z,60.80
2023-05-06T20:16:05.553Z,61.97
2023-05-06T20:18:35.194Z,65.20
2023-05-06T20:21:03.814Z,66.95
2023-05-06T20:23:32.234Z,60.92
2023-05-06T20:26:02.149Z,68.07
2023-05-06T20:28:31.543Z,63.78
2023-05-06T20:31:17.500Z,62.13
2023-05-06T20:33:46.126Z,68.97
2023-05-06T20:36:14.390Z,67.05
2023-05-06T20:38:44.761Z,67.38
2023-05-06T20:41:16.727Z,65.80
2023-05-06T20:43:45.149Z,65.18
2023-05-06T20:46:13.457Z,60.47
2023-05-06T20:48:44.668Z,60.85
2023-05-06T20:51:13.145Z,59.88
2023-05-06T20:53:42.932Z,58.00
2023-05-06T20:56:24.327Z,61.70
2023-05-06T20:58:52.945Z,58.30
2023-05-06T21:01:23.243Z,58.10
2023-05-06T21:03:53.966Z,59.30
2023-05-06T21:06:22.380Z,59.85
2023-05-06T21:08:51.900Z,58.88
2023-05-06T21:11:23.687Z,54.80
2023-05-06T21:13:51.866Z,51.72
2023-05-06T21:16:20.275Z,57.15
2023-05-06T21:18:50.412Z,54.22
2023-05-06T21:21:22.027Z,54.00
2023-05-06T21:23:51.805Z,50.03
2023-05-06T21:26:21.949Z,51.33
2023-05-06T21:28:52.282Z,56.03
2023-05-06T21:31:21.371Z,55.00
2023-05-06T21:33:49.996Z,50.67
2023-05-06T21:36:19.003Z,53.47
2023-05-06T21:38:49.644Z,54.88
2023-05-06T21:41:18.061Z,51.80
2023-05-06T21:43:47.699Z,50.92
2023-05-06T21:46:16.001Z,51.70
2023-05-06T21:48:44.236Z,52.05
2023-05-06T21:51:12.369Z,52.38
2023-05-06T21:53:40.986Z,51.92
2023-05-06T21:56:11.994Z,51.85
2023-05-06T21:58:40.376Z,50.08
2023-05-06T22:01:14.546Z,53.67
2023-05-06T22:03:54.124Z,50.75
2023-05-06T22:06:22.636Z,50.78
2023-05-06T22:08:51.701Z,54.92
2023-05-06T22:11:20.120Z,54.15
2023-05-06T22:13:51.345Z,53.03
2023-05-06T22:16:21.178Z,51.28
2023-05-06T22:18:51.976Z,54.17
2023-05-06T22:21:20.271Z,52.30
2023-05-06T22:23:50.781Z,55.70
2023-05-06T22:26:19.259Z,52.80
2023-05-06T22:28:48.963Z,50.72
2023-05-06T22:31:17.361Z,52.53
2023-05-06T22:33:54.395Z,51.00
2023-05-06T22:36:22.995Z,51.17
2023-05-06T22:38:53.828Z,52.17
2023-05-06T22:41:22.213Z,53.55
2023-05-06T22:43:50.504Z,50.17
2023-05-06T22:46:19.092Z,51.38
2023-05-06T22:48:50.177Z,49.88
2023-05-06T22:51:18.655Z,51.83
2023-05-06T22:53:46.804Z,52.22
2023-05-06T22:56:14.947Z,51.80
2023-05-06T22:58:43.480Z,53.03
2023-05-06T23:01:12.171Z,50.22
2023-05-06T23:03:43.558Z,50.85
2023-05-06T23:06:16.155Z,50.95
2023-05-06T23:08:44.451Z,53.08
2023-05-06T23:11:12.804Z,51.35
2023-05-06T23:13:41.098Z,53.22
2023-05-06T23:16:11.513Z,52.40
2023-05-06T23:18:39.823Z,51.65
2023-05-06T23:21:08.052Z,51.78
2023-05-06T23:23:37.725Z,52.03
2023-05-06T23:26:05.927Z,51.38
2023-05-06T23:28:34.380Z,51.67
2023-05-06T23:31:03.118Z,52.65
2023-05-06T23:33:31.449Z,54.38
2023-05-06T23:36:00.992Z,53.40
2023-05-06T23:38:29.105Z,53.65
2023-05-06T23:40:58.936Z,53.05
2023-05-06T23:43:26.994Z,53.70
2023-05-06T23:45:55.635Z,52.28
2023-05-06T23:48:24.043Z,53.13
2023-05-06T23:50:54.495Z,53.92
2023-05-06T23:53:23.414Z,56.47
2023-05-06T23:55:51.882Z,53.38
2023-05-06T23:58:21.500Z,54.50
